Altus, Oklahoma
Current Conditions -  °F | °C
As of 3:58 PM on Wednesday 28 Jan 2015 (Local Time) from KLTS Reporting Station
Clear Clear  
Wind Chill: 81°   Ceiling: Unl
Heat Index: 81°   Visibility: 10mi
Dew Point: 39°   Wind: 15mph
Humidity: 23%   Direction: 250°WSW
Pressure: 29.89"   Gusts: 23mph
Location:  34.64°N, 99.33°W
Report Text: KLTS 282158Z 25013G20KT 10SM CLR 27/04 A2989 RMK AO2A SLP115 T02700039 $
Loading
Personal Weather Stations






























Interactive Weather Map New forecast layout! Learn more

10-Day Weather Forecast

Advertisements
Track Severe Weather on mobile